Cap Chat, Canada
Current Conditions -  °F | °C
As of 7:00 AM on Monday 24 Nov 2014 (Local Time) from CYBC Reporting Station
Overcast Overcast  
Wind Chill: 24°   Ceiling: 4100
Heat Index: 34°   Visibility: 9mi
Dew Point: 28°   Wind: 16mph
Humidity: 81%   Direction: 80°E
Pressure: 29.96"   Gusts: 28mph
Location:  49.1°N, 66.68°W
Report Text: CYBC 241200Z AUTO 08014G24KT 9SM OVC041 01/M02 A2996 RMK SLP146
Loading
Personal Weather Stations






























Interactive Weather Map New forecast layout! Learn more

10-Day Weather Forecast

Advertisements
Track Severe Weather on mobile